Time,TemperatureF,DewpointF,PressureIn,WindDirection,WindDirectionDegrees,WindSpeedMPH,WindSpeedGustMPH,Humidity,HourlyPrecipIn,Conditions,Clouds,dailyrainin,SoftwareType,DateUTC
2013-01-10 00:15:00,58.8,58.0,30.01,ENE,71,3.0,10.0,98,0.00,,,0.00,weatherlink.com 1.10,2013-01-10 06:15:00,
2013-01-10 00:28:00,58.7,58.0,30.00,ENE,75,8.0,9.0,98,0.00,,,0.00,weatherlink.com 1.10,2013-01-10 06:28:00,
2013-01-10 00:43:00,58.7,58.0,30.00,East,91,5.0,10.0,97,0.00,,,0.00,weatherlink.com 1.10,2013-01-10 06:43:00,
2013-01-10 01:13:00,58.7,58.0,30.00,East,89,7.0,10.0,98,0.02,,,0.02,weatherlink.com 1.10,2013-01-10 07:13:00,
2013-01-10 01:28:00,58.5,58.0,29.98,East,97,6.0,11.0,98,0.02,,,0.02,weatherlink.com 1.10,2013-01-10 07:28:00,
2013-01-10 01:43:00,58.7,58.0,29.97,East,98,5.0,13.0,98,0.02,,,0.02,weatherlink.com 1.10,2013-01-10 07:43:00,
2013-01-10 01:58:00,58.9,58.0,29.97,East,100,9.0,10.0,98,0.02,,,0.02,weatherlink.com 1.10,2013-01-10 07:58:00,
2013-01-10 02:13:00,59.2,59.0,29.96,East,94,5.0,9.0,98,0.00,,,0.02,weatherlink.com 1.10,2013-01-10 08:13:00,
2013-01-10 02:28:00,59.2,59.0,29.95,SE,129,2.0,11.0,98,0.00,,,0.02,weatherlink.com 1.10,2013-01-10 08:28:00,
2013-01-10 02:43:00,60.0,60.0,29.97,East,89,3.0,6.0,99,0.00,,,0.02,weatherlink.com 1.10,2013-01-10 08:43:00,
2013-01-10 02:58:00,60.5,60.0,29.96,East,88,1.0,4.0,98,0.00,,,0.02,weatherlink.com 1.10,2013-01-10 08:58:00,
2013-01-10 03:13:00,61.2,61.0,29.97,North,5,1.0,5.0,99,0.00,,,0.02,weatherlink.com 1.10,2013-01-10 09:13:00,
2013-01-10 03:28:00,61.6,61.0,29.98,SSE,157,1.0,6.0,99,0.00,,,0.02,weatherlink.com 1.10,2013-01-10 09:28:00,
2013-01-10 03:43:00,61.7,61.0,29.97,ESE,109,1.0,3.0,98,0.00,,,0.02,weatherlink.com 1.10,2013-01-10 09:43:00,
2013-01-10 04:00:00,61.6,61.0,29.95,ESE,108,0.0,6.0,98,0.00,,,0.02,weatherlink.com 1.10,2013-01-10 10:00:00,
2013-01-10 04:13:00,61.3,61.0,29.96,WSW,254,0.0,3.0,98,0.00,,,0.02,weatherlink.com 1.10,2013-01-10 10:13:00,
2013-01-10 04:28:00,61.5,61.0,29.96,South,169,0.0,5.0,98,0.01,,,0.03,weatherlink.com 1.10,2013-01-10 10:28:00,
2013-01-10 04:43:00,61.5,61.0,29.96,West,266,2.0,2.0,98,0.01,,,0.03,weatherlink.com 1.10,2013-01-10 10:43:00,
2013-01-10 04:58:00,61.2,61.0,29.95,West,270,1.0,3.0,98,0.01,,,0.03,weatherlink.com 1.10,2013-01-10 10:58:00,
2013-01-10 05:13:00,61.1,60.0,29.95,SSW,193,4.0,5.0,97,0.01,,,0.03,weatherlink.com 1.10,2013-01-10 11:13:00,
2013-01-10 05:28:00,60.4,59.0,29.94,WSW,248,4.0,5.0,96,0.00,,,0.03,weatherlink.com 1.10,2013-01-10 11:28:00,
2013-01-10 05:43:00,59.6,59.0,29.94,West,261,1.0,6.0,97,0.00,,,0.03,weatherlink.com 1.10,2013-01-10 11:43:00,
2013-01-10 05:58:00,58.8,58.0,29.95,SW,217,1.0,5.0,97,0.00,,,0.03,weatherlink.com 1.10,2013-01-10 11:58:00,
2013-01-10 06:13:00,58.2,57.0,29.96,WSW,253,1.0,7.0,97,0.00,,,0.03,weatherlink.com 1.10,2013-01-10 12:13:00,
2013-01-10 06:28:00,58.2,57.0,29.96,SSW,209,1.0,6.0,97,0.00,,,0.03,weatherlink.com 1.10,2013-01-10 12:28:00,
2013-01-10 06:43:00,58.2,57.0,29.96,West,280,1.0,4.0,97,0.00,,,0.03,weatherlink.com 1.10,2013-01-10 12:43:00,
2013-01-10 06:58:00,58.1,57.0,29.96,South,184,2.0,8.0,97,0.00,,,0.03,weatherlink.com 1.10,2013-01-10 12:58:00,
2013-01-10 07:13:00,57.5,56.0,29.95,WSW,253,3.0,7.0,96,0.00,,,0.03,weatherlink.com 1.10,2013-01-10 13:13:00,
2013-01-10 07:28:00,57.1,56.0,29.96,WSW,255,2.0,8.0,96,0.00,,,0.03,weatherlink.com 1.10,2013-01-10 13:28:00,
2013-01-10 07:43:00,56.7,56.0,29.97,WSW,240,4.0,7.0,97,0.00,,,0.03,weatherlink.com 1.10,2013-01-10 13:43:00,
2013-01-10 07:58:00,56.6,56.0,29.97,WSW,244,1.0,6.0,96,0.00,,,0.03,weatherlink.com 1.10,2013-01-10 13:58:00,
2013-01-10 08:13:00,56.3,55.0,29.97,WSW,240,7.0,8.0,96,0.00,,,0.03,weatherlink.com 1.10,2013-01-10 14:13:00,
2013-01-10 08:28:00,56.4,55.0,29.98,WSW,246,2.0,5.0,96,0.00,,,0.03,weatherlink.com 1.10,2013-01-10 14:28:00,
2013-01-10 08:43:00,56.5,55.0,29.98,SW,231,3.0,7.0,95,0.00,,,0.03,weatherlink.com 1.10,2013-01-10 14:43:00,
2013-01-10 08:59:00,56.1,54.0,29.97,SW,224,3.0,7.0,94,0.00,,,0.03,weatherlink.com 1.10,2013-01-10 14:59:00,
2013-01-10 09:13:00,56.5,54.0,29.96,WSW,250,7.0,10.0,92,0.00,,,0.03,weatherlink.com 1.10,2013-01-10 15:13:00,
2013-01-10 09:29:00,56.7,54.0,29.98,South,177,3.0,5.0,90,0.00,,,0.03,weatherlink.com 1.10,2013-01-10 15:29:00,
2013-01-10 09:44:00,56.8,54.0,29.98,SSW,212,2.0,6.0,90,0.00,,,0.03,weatherlink.com 1.10,2013-01-10 15:44:00,
2013-01-10 09:59:00,57.0,54.0,29.99,SW,233,2.0,6.0,90,0.00,,,0.03,weatherlink.com 1.10,2013-01-10 15:59:00,
2013-01-10 10:14:00,57.7,54.0,29.99,SE,139,1.0,6.0,88,0.00,,,0.03,weatherlink.com 1.10,2013-01-10 16:14:00,
2013-01-10 10:29:00,57.3,53.0,30.01,SSE,165,2.0,9.0,86,0.00,,,0.03,weatherlink.com 1.10,2013-01-10 16:29:00,
2013-01-10 10:44:00,57.5,53.0,30.02,SSW,201,4.0,14.0,85,0.00,,,0.03,weatherlink.com 1.10,2013-01-10 16:44:00,
2013-01-10 10:59:00,58.4,53.0,30.00,SW,225,11.0,11.0,82,0.00,,,0.03,weatherlink.com 1.10,2013-01-10 16:59:00,
2013-01-10 11:14:00,58.2,53.0,30.00,South,186,2.0,10.0,82,0.00,,,0.03,weatherlink.com 1.10,2013-01-10 17:14:00,
2013-01-10 11:29:00,58.8,51.0,29.98,WSW,258,6.0,11.0,76,0.00,,,0.03,weatherlink.com 1.10,2013-01-10 17:29:00,
2013-01-10 11:44:00,58.3,51.0,29.97,WSW,245,4.0,11.0,76,0.00,,,0.03,weatherlink.com 1.10,2013-01-10 17:44:00,
2013-01-10 11:59:00,58.7,51.0,29.96,WSW,245,8.0,11.0,76,0.00,,,0.03,weatherlink.com 1.10,2013-01-10 17:59:00,
2013-01-10 12:14:00,60.1,51.0,29.95,SW,217,6.0,12.0,73,0.00,,,0.03,weatherlink.com 1.10,2013-01-10 18:14:00,
2013-01-10 12:29:00,59.0,50.0,29.96,SSW,193,7.0,15.0,73,0.00,,,0.03,weatherlink.com 1.10,2013-01-10 18:29:00,
2013-01-10 12:44:00,58.4,50.0,29.95,WSW,238,8.0,14.0,73,0.00,,,0.03,weatherlink.com 1.10,2013-01-10 18:44:00,
2013-01-10 12:59:00,58.5,50.0,29.95,WSW,257,5.0,11.0,73,0.00,,,0.03,weatherlink.com 1.10,2013-01-10 18:59:00,
2013-01-10 13:14:00,59.7,50.0,29.94,WSW,245,8.0,16.0,70,0.00,,,0.03,weatherlink.com 1.10,2013-01-10 19:14:00,
2013-01-10 13:29:00,60.0,50.0,29.94,SW,221,4.0,13.0,69,0.00,,,0.03,weatherlink.com 1.10,2013-01-10 19:29:00,
2013-01-10 13:44:00,59.6,49.0,29.94,West,276,7.0,14.0,69,0.00,,,0.03,weatherlink.com 1.10,2013-01-10 19:44:00,
2013-01-10 13:59:00,60.4,48.0,29.94,SW,236,5.0,14.0,64,0.00,,,0.03,weatherlink.com 1.10,2013-01-10 19:59:00,
2013-01-10 14:14:00,60.6,49.0,29.93,SSE,155,1.0,9.0,66,0.00,,,0.03,weatherlink.com 1.10,2013-01-10 20:14:00,
2013-01-10 14:29:00,60.9,49.0,29.93,SW,228,3.0,13.0,66,0.00,,,0.03,weatherlink.com 1.10,2013-01-10 20:29:00,
2013-01-10 14:44:00,60.3,48.0,29.94,SW,217,3.0,13.0,65,0.00,,,0.03,weatherlink.com 1.10,2013-01-10 20:44:00,
2013-01-10 14:59:00,61.1,49.0,29.94,SSW,201,3.0,11.0,64,0.00,,,0.03,weatherlink.com 1.10,2013-01-10 20:59:00,
2013-01-10 15:14:00,60.8,48.0,29.94,WSW,257,2.0,9.0,64,0.00,,,0.03,weatherlink.com 1.10,2013-01-10 21:14:00,
2013-01-10 15:29:00,61.4,47.0,29.94,West,280,5.0,15.0,59,0.00,,,0.03,weatherlink.com 1.10,2013-01-10 21:29:00,
2013-01-10 15:44:00,61.1,46.0,29.94,WSW,257,11.0,14.0,59,0.00,,,0.03,weatherlink.com 1.10,2013-01-10 21:44:00,
2013-01-10 15:59:00,60.8,48.0,29.94,WSW,257,10.0,15.0,63,0.00,,,0.03,weatherlink.com 1.10,2013-01-10 21:59:00,
2013-01-10 16:14:00,60.2,48.0,29.95,SW,229,6.0,12.0,65,0.00,,,0.03,weatherlink.com 1.10,2013-01-10 22:14:00,
2013-01-10 16:29:00,59.4,48.0,29.95,WSW,255,12.0,20.0,66,0.00,,,0.03,weatherlink.com 1.10,2013-01-10 22:29:00,
2013-01-10 16:44:00,58.7,47.0,29.96,WSW,237,4.0,16.0,66,0.00,,,0.03,weatherlink.com 1.10,2013-01-10 22:44:00,
2013-01-10 16:59:00,57.9,47.0,29.96,WSW,245,9.0,16.0,68,0.00,,,0.03,weatherlink.com 1.10,2013-01-10 22:59:00,
2013-01-10 17:14:00,56.6,47.0,29.97,SW,230,4.0,11.0,71,0.00,,,0.03,weatherlink.com 1.10,2013-01-10 23:14:00,
2013-01-10 17:29:00,55.8,47.0,29.98,NNW,330,4.0,11.0,73,0.00,,,0.03,weatherlink.com 1.10,2013-01-10 23:29:00,
2013-01-10 17:44:00,55.2,47.0,29.98,WSW,248,4.0,11.0,73,0.00,,,0.03,weatherlink.com 1.10,2013-01-10 23:44:00,
2013-01-10 17:59:00,54.5,47.0,29.99,WSW,245,3.0,8.0,75,0.00,,,0.03,weatherlink.com 1.10,2013-01-10 23:59:00,
2013-01-10 18:14:00,53.8,46.0,29.99,SW,233,2.0,7.0,76,0.00,,,0.03,weatherlink.com 1.10,2013-01-11 00:14:00,
2013-01-10 18:29:00,53.4,46.0,30.00,SSW,195,1.0,5.0,77,0.00,,,0.03,weatherlink.com 1.10,2013-01-11 00:29:00,
2013-01-10 18:46:00,52.8,46.0,29.99,SW,217,0.0,4.0,78,0.00,,,0.03,weatherlink.com 1.10,2013-01-11 00:46:00,
2013-01-10 18:59:00,52.4,46.0,29.99,SW,231,1.0,4.0,78,0.00,,,0.03,weatherlink.com 1.10,2013-01-11 00:59:00,
2013-01-10 19:14:00,52.5,46.0,29.99,South,187,2.0,7.0,78,0.00,,,0.03,weatherlink.com 1.10,2013-01-11 01:14:00,
2013-01-10 19:29:00,52.4,46.0,29.99,WSW,240,1.0,4.0,78,0.00,,,0.03,weatherlink.com 1.10,2013-01-11 01:29:00,
2013-01-10 19:44:00,52.3,46.0,29.98,WSW,238,4.0,5.0,78,0.00,,,0.03,weatherlink.com 1.10,2013-01-11 01:44:00,
2013-01-10 19:59:00,52.6,46.0,29.99,WSW,244,3.0,6.0,77,0.00,,,0.03,weatherlink.com 1.10,2013-01-11 01:59:00,
2013-01-10 20:14:00,52.0,46.0,29.99,SW,222,0.0,3.0,79,0.00,,,0.03,weatherlink.com 1.10,2013-01-11 02:14:00,
2013-01-10 20:29:00,52.1,46.0,29.99,WSW,240,3.0,4.0,79,0.00,,,0.03,weatherlink.com 1.10,2013-01-11 02:29:00,
2013-01-10 20:45:00,51.3,46.0,29.99,SSE,163,0.0,4.0,81,0.00,,,0.03,weatherlink.com 1.10,2013-01-11 02:45:00,
2013-01-10 21:00:00,50.6,46.0,30.00,South,175,0.0,1.0,83,0.00,,,0.03,weatherlink.com 1.10,2013-01-11 03:00:00,
2013-01-10 21:15:00,50.0,46.0,30.00,SW,221,2.0,2.0,85,0.00,,,0.03,weatherlink.com 1.10,2013-01-11 03:15:00,
2013-01-10 21:30:00,49.6,46.0,30.00,NW,307,0.0,2.0,86,0.00,,,0.03,weatherlink.com 1.10,2013-01-11 03:30:00,
2013-01-10 21:45:00,49.5,46.0,29.99,SSE,152,0.0,2.0,86,0.00,,,0.03,weatherlink.com 1.10,2013-01-11 03:45:00,
2013-01-10 22:00:00,49.3,45.0,29.99,SE,144,1.0,4.0,86,0.00,,,0.03,weatherlink.com 1.10,2013-01-11 04:00:00,
2013-01-10 22:15:00,49.4,45.0,29.98,South,191,0.0,1.0,86,0.00,,,0.03,weatherlink.com 1.10,2013-01-11 04:15:00,
2013-01-10 22:31:00,48.7,45.0,29.98,SE,126,0.0,1.0,87,0.00,,,0.03,weatherlink.com 1.10,2013-01-11 04:31:00,
2013-01-10 22:45:00,48.5,45.0,29.98,SW,223,0.0,1.0,88,0.00,,,0.03,weatherlink.com 1.10,2013-01-11 04:45:00,
2013-01-10 23:15:00,48.4,45.0,29.99,SW,221,0.0,1.0,88,0.00,,,0.03,weatherlink.com 1.10,2013-01-11 05:15:00,
2013-01-10 23:30:00,48.0,45.0,29.99,SE,141,0.0,1.0,89,0.00,,,0.03,weatherlink.com 1.10,2013-01-11 05:30:00,
2013-01-10 23:45:00,47.6,45.0,29.99,SSE,158,0.0,0.0,90,0.00,,,0.03,weatherlink.com 1.10,2013-01-11 05:45:00,